Hovedside
METAR-TAF:

METAR-TAF

Lufthavner :

Kupang, Indonesia

breddegrad: 10-10-17S, lengdegrad: 123-40-16E, høyde over havet: 102 m

Gjeldene værobservasjon

Denne rapporten ble laget for 49 minutter siden, klokken 01:00 UTC
Vind 18 kt fra Øst med vindkast opp mot 29 kt, skiftende mellom Øst-nordøst og Sørøst
Temperatur 31°C
Luftfuktighet 63%
Trykk 1014 hPa
Sikt 10 km eller mer
Få skyer i en høyde av 1700 ft

METAR: WATT 220100Z 10018G29KT 070V130 9999 FEW017 31/23 Q1014 NOSIG

Tid: 08:49 (01:49 UTC)

Varsel

Denne rapporten ble laget for 2 timer og 49 minutter siden, klokken 23:00 UTC
Varsel gyldig fra 22. klokken 00 UTC til 22. klokken 24 UTC
Vind 15 kt fra Øst
Sikt 10 km eller mer
Få skyer i en høyde av 1800 ft
Midlertidig
fra 22. klokken 03 UTC til 22. klokken 05 UTC
Vind 16 kt fra Øst-sørøst med vindkast opp mot 26 kt
Blir
fra 22. klokken 10 UTC til 22. klokken 12 UTC
Vind 6 kt fra Øst

TAF: WATT 212300Z 2200/2224 10015KT 9999 FEW018 TEMPO 2203/2205 12016G26KT BECMG 2210/2212 10006KT

Værobservasjoner og værvarsel for over 4000 flyplasser (METAR- og TAF-rapporter).

Tilgjengelige stasjoner er representert av de røde og gule prikkene på kartet.

Hold musepekeren over prikken for å se navnet på stasjonen.

Klikk så for å se værobservasjoner og -varsler.

For å forandre kartet kan du klikke på den grønne knappen med svart kryss for å zoome inn, på den grønne knappen med strek for å zoome ut, eller på de grønne pilene for å se tilstøtende kart.


METAR-TAF: